Aviation Digital Data Service (ADDS)

Output produced by METARs form (1357 UTC 19 August 2019)
found at http://aviationweather.gov/metar/data/
 
TAF EPDA 191100Z 1912/1921 25006KT CAVOK 
     BECMG 1914/1916 VRB03KT 
     TEMPO 1914/1918 -SHRA BKN025TCU